sensor_id;sensor_type;location;lat;lon;timestamp;P1;durP1;ratioP1;P2;durP2;ratioP2
20896;SDS011;10608;42.600;23.398;2023-06-19T00:00:44;120.13;;;114.97;;
20896;SDS011;10608;42.600;23.398;2023-06-19T00:03:09;103.63;;;99.20;;
20896;SDS011;10608;42.600;23.398;2023-06-19T00:05:35;104.73;;;100.20;;
20896;SDS011;10608;42.600;23.398;2023-06-19T00:08:00;109.80;;;104.93;;
20896;SDS011;10608;42.600;23.398;2023-06-19T00:10:25;107.10;;;102.30;;
20896;SDS011;10608;42.600;23.398;2023-06-19T00:12:51;128.03;;;122.10;;
20896;SDS011;10608;42.600;23.398;2023-06-19T00:15:16;122.07;;;116.47;;
20896;SDS011;10608;42.600;23.398;2023-06-19T00:17:42;126.20;;;120.37;;
20896;SDS011;10608;42.600;23.398;2023-06-19T00:20:07;122.73;;;117.17;;
20896;SDS011;10608;42.600;23.398;2023-06-19T00:22:34;99.03;;;94.53;;
20896;SDS011;10608;42.600;23.398;2023-06-19T00:24:59;83.27;;;79.63;;
20896;SDS011;10608;42.600;23.398;2023-06-19T00:27:25;80.17;;;76.60;;
20896;SDS011;10608;42.600;23.398;2023-06-19T00:29:51;75.50;;;72.10;;
20896;SDS011;10608;42.600;23.398;2023-06-19T00:32:17;71.67;;;68.53;;
20896;SDS011;10608;42.600;23.398;2023-06-19T00:34:42;68.37;;;65.27;;
20896;SDS011;10608;42.600;23.398;2023-06-19T00:37:08;66.40;;;63.47;;
20896;SDS011;10608;42.600;23.398;2023-06-19T00:39:34;63.83;;;61.03;;
20896;SDS011;10608;42.600;23.398;2023-06-19T00:42:00;61.10;;;58.23;;
20896;SDS011;10608;42.600;23.398;2023-06-19T00:44:26;69.00;;;65.93;;
20896;SDS011;10608;42.600;23.398;2023-06-19T00:46:55;63.53;;;60.77;;
20896;SDS011;10608;42.600;23.398;2023-06-19T00:49:23;82.57;;;78.97;;
20896;SDS011;10608;42.600;23.398;2023-06-19T00:51:51;97.17;;;93.00;;
20896;SDS011;10608;42.600;23.398;2023-06-19T00:54:17;97.87;;;93.50;;
20896;SDS011;10608;42.600;23.398;2023-06-19T00:56:43;97.23;;;93.10;;
20896;SDS011;10608;42.600;23.398;2023-06-19T00:59:14;86.97;;;83.17;;
20896;SDS011;10608;42.600;23.398;2023-06-19T01:01:42;85.80;;;80.73;;
20896;SDS011;10608;42.600;23.398;2023-06-19T01:04:08;80.00;;;76.47;;
20896;SDS011;10608;42.600;23.398;2023-06-19T01:06:41;71.03;;;67.93;;
20896;SDS011;10608;42.600;23.398;2023-06-19T01:09:15;70.17;;;67.03;;
20896;SDS011;10608;42.600;23.398;2023-06-19T01:11:44;69.57;;;66.47;;
20896;SDS011;10608;42.600;23.398;2023-06-19T01:17:14;65.60;;;62.63;;
20896;SDS011;10608;42.600;23.398;2023-06-19T01:19:40;77.57;;;74.13;;
20896;SDS011;10608;42.600;23.398;2023-06-19T01:22:06;88.23;;;84.33;;
20896;SDS011;10608;42.600;23.398;2023-06-19T01:24:31;108.53;;;103.63;;
20896;SDS011;10608;42.600;23.398;2023-06-19T01:26:57;104.13;;;99.43;;
20896;SDS011;10608;42.600;23.398;2023-06-19T01:29:22;96.07;;;91.97;;
20896;SDS011;10608;42.600;23.398;2023-06-19T01:32:04;117.30;;;112.17;;
20896;SDS011;10608;42.600;23.398;2023-06-19T01:34:35;115.47;;;110.53;;
20896;SDS011;10608;42.600;23.398;2023-06-19T01:37:02;104.07;;;99.43;;
20896;SDS011;10608;42.600;23.398;2023-06-19T01:39:30;90.13;;;86.23;;
20896;SDS011;10608;42.600;23.398;2023-06-19T01:41:57;89.43;;;85.37;;
20896;SDS011;10608;42.600;23.398;2023-06-19T01:44:24;102.37;;;97.90;;
20896;SDS011;10608;42.600;23.398;2023-06-19T01:46:50;115.63;;;110.50;;
20896;SDS011;10608;42.600;23.398;2023-06-19T01:49:16;88.47;;;84.57;;
20896;SDS011;10608;42.600;23.398;2023-06-19T01:51:41;95.10;;;91.00;;
20896;SDS011;10608;42.600;23.398;2023-06-19T01:54:07;89.87;;;86.00;;
20896;SDS011;10608;42.600;23.398;2023-06-19T01:56:32;92.37;;;88.17;;
20896;SDS011;10608;42.600;23.398;2023-06-19T01:58:58;102.00;;;97.33;;
20896;SDS011;10608;42.600;23.398;2023-06-19T02:01:23;109.27;;;104.47;;
20896;SDS011;10608;42.600;23.398;2023-06-19T02:03:49;123.03;;;117.60;;
20896;SDS011;10608;42.600;23.398;2023-06-19T02:06:14;111.20;;;106.30;;
20896;SDS011;10608;42.600;23.398;2023-06-19T02:08:39;119.93;;;113.67;;
20896;SDS011;10608;42.600;23.398;2023-06-19T02:11:05;125.17;;;119.53;;
20896;SDS011;10608;42.600;23.398;2023-06-19T02:13:30;122.03;;;116.53;;
20896;SDS011;10608;42.600;23.398;2023-06-19T02:15:55;124.67;;;119.13;;
20896;SDS011;10608;42.600;23.398;2023-06-19T02:18:21;113.20;;;108.23;;
20896;SDS011;10608;42.600;23.398;2023-06-19T02:20:47;113.40;;;108.43;;
20896;SDS011;10608;42.600;23.398;2023-06-19T02:23:12;109.47;;;104.57;;
20896;SDS011;10608;42.600;23.398;2023-06-19T02:25:37;106.47;;;101.70;;
20896;SDS011;10608;42.600;23.398;2023-06-19T02:28:03;101.67;;;97.10;;
20896;SDS011;10608;42.600;23.398;2023-06-19T02:30:28;91.07;;;86.97;;
20896;SDS011;10608;42.600;23.398;2023-06-19T02:32:54;99.73;;;95.23;;
20896;SDS011;10608;42.600;23.398;2023-06-19T02:35:19;95.13;;;90.93;;
20896;SDS011;10608;42.600;23.398;2023-06-19T02:37:45;84.00;;;80.13;;
20896;SDS011;10608;42.600;23.398;2023-06-19T02:40:12;73.27;;;70.07;;
20896;SDS011;10608;42.600;23.398;2023-06-19T02:42:38;66.30;;;63.33;;
20896;SDS011;10608;42.600;23.398;2023-06-19T02:45:03;83.10;;;79.37;;
20896;SDS011;10608;42.600;23.398;2023-06-19T02:47:32;85.70;;;81.90;;
20896;SDS011;10608;42.600;23.398;2023-06-19T02:49:58;75.97;;;72.47;;
20896;SDS011;10608;42.600;23.398;2023-06-19T02:52:25;82.70;;;79.13;;
20896;SDS011;10608;42.600;23.398;2023-06-19T02:54:51;84.73;;;80.93;;
20896;SDS011;10608;42.600;23.398;2023-06-19T02:57:17;94.10;;;89.83;;
20896;SDS011;10608;42.600;23.398;2023-06-19T02:59:42;94.60;;;90.50;;
20896;SDS011;10608;42.600;23.398;2023-06-19T03:02:08;90.60;;;86.63;;
20896;SDS011;10608;42.600;23.398;2023-06-19T03:04:33;94.77;;;90.57;;
20896;SDS011;10608;42.600;23.398;2023-06-19T03:06:58;93.23;;;89.03;;
20896;SDS011;10608;42.600;23.398;2023-06-19T03:09:24;90.40;;;86.30;;
20896;SDS011;10608;42.600;23.398;2023-06-19T03:11:49;93.00;;;88.70;;
20896;SDS011;10608;42.600;23.398;2023-06-19T03:14:15;102.83;;;97.53;;
20896;SDS011;10608;42.600;23.398;2023-06-19T03:16:40;95.60;;;91.30;;
20896;SDS011;10608;42.600;23.398;2023-06-19T03:19:05;96.43;;;92.17;;
20896;SDS011;10608;42.600;23.398;2023-06-19T03:21:31;80.97;;;77.43;;
20896;SDS011;10608;42.600;23.398;2023-06-19T03:23:56;87.80;;;83.30;;
20896;SDS011;10608;42.600;23.398;2023-06-19T03:26:22;85.17;;;81.33;;
20896;SDS011;10608;42.600;23.398;2023-06-19T03:28:49;96.53;;;92.33;;
20896;SDS011;10608;42.600;23.398;2023-06-19T03:31:15;106.03;;;101.27;;
20896;SDS011;10608;42.600;23.398;2023-06-19T03:33:40;135.97;;;130.00;;
20896;SDS011;10608;42.600;23.398;2023-06-19T03:36:06;113.27;;;108.30;;
20896;SDS011;10608;42.600;23.398;2023-06-19T03:38:32;118.80;;;113.57;;
20896;SDS011;10608;42.600;23.398;2023-06-19T03:40:58;104.10;;;99.60;;
20896;SDS011;10608;42.600;23.398;2023-06-19T03:43:23;146.27;;;139.70;;
20896;SDS011;10608;42.600;23.398;2023-06-19T03:45:48;125.43;;;119.83;;
20896;SDS011;10608;42.600;23.398;2023-06-19T03:48:15;111.87;;;106.83;;
20896;SDS011;10608;42.600;23.398;2023-06-19T03:50:41;94.70;;;90.53;;
20896;SDS011;10608;42.600;23.398;2023-06-19T03:53:06;89.13;;;85.23;;
20896;SDS011;10608;42.600;23.398;2023-06-19T03:55:32;49.07;;;46.80;;
20896;SDS011;10608;42.600;23.398;2023-06-19T03:57:57;54.57;;;52.17;;
20896;SDS011;10608;42.600;23.398;2023-06-19T04:00:23;67.23;;;64.33;;
20896;SDS011;10608;42.600;23.398;2023-06-19T04:02:48;40.40;;;38.60;;
20896;SDS011;10608;42.600;23.398;2023-06-19T04:05:14;28.07;;;26.90;;
20896;SDS011;10608;42.600;23.398;2023-06-19T04:07:40;46.40;;;44.37;;
20896;SDS011;10608;42.600;23.398;2023-06-19T04:10:06;26.27;;;25.07;;
20896;SDS011;10608;42.600;23.398;2023-06-19T04:12:32;33.73;;;32.23;;
20896;SDS011;10608;42.600;23.398;2023-06-19T04:14:58;36.77;;;35.17;;
20896;SDS011;10608;42.600;23.398;2023-06-19T04:17:23;36.80;;;35.17;;
20896;SDS011;10608;42.600;23.398;2023-06-19T04:19:48;36.90;;;35.20;;
20896;SDS011;10608;42.600;23.398;2023-06-19T04:22:14;39.90;;;38.17;;
20896;SDS011;10608;42.600;23.398;2023-06-19T04:24:39;46.63;;;44.63;;
20896;SDS011;10608;42.600;23.398;2023-06-19T04:27:05;58.53;;;56.03;;
20896;SDS011;10608;42.600;23.398;2023-06-19T04:29:30;51.07;;;48.93;;
20896;SDS011;10608;42.600;23.398;2023-06-19T04:31:59;40.87;;;39.07;;
20896;SDS011;10608;42.600;23.398;2023-06-19T04:34:25;30.40;;;29.07;;
20896;SDS011;10608;42.600;23.398;2023-06-19T04:36:51;20.97;;;19.97;;
20896;SDS011;10608;42.600;23.398;2023-06-19T04:39:17;33.50;;;32.07;;
20896;SDS011;10608;42.600;23.398;2023-06-19T04:41:42;46.83;;;44.67;;
20896;SDS011;10608;42.600;23.398;2023-06-19T04:44:08;52.43;;;50.27;;
20896;SDS011;10608;42.600;23.398;2023-06-19T04:46:34;57.80;;;55.33;;
20896;SDS011;10608;42.600;23.398;2023-06-19T04:49:00;45.03;;;43.07;;
20896;SDS011;10608;42.600;23.398;2023-06-19T04:51:28;35.90;;;34.37;;
20896;SDS011;10608;42.600;23.398;2023-06-19T04:53:55;33.00;;;31.60;;
20896;SDS011;10608;42.600;23.398;2023-06-19T04:56:21;28.07;;;26.80;;
20896;SDS011;10608;42.600;23.398;2023-06-19T04:58:47;22.33;;;21.33;;
20896;SDS011;10608;42.600;23.398;2023-06-19T05:01:13;25.00;;;23.90;;
20896;SDS011;10608;42.600;23.398;2023-06-19T05:03:40;19.23;;;18.43;;
20896;SDS011;10608;42.600;23.398;2023-06-19T05:06:05;18.97;;;18.07;;
20896;SDS011;10608;42.600;23.398;2023-06-19T05:08:31;14.20;;;13.60;;
20896;SDS011;10608;42.600;23.398;2023-06-19T05:10:56;22.80;;;21.67;;
20896;SDS011;10608;42.600;23.398;2023-06-19T05:13:23;33.57;;;32.10;;
20896;SDS011;10608;42.600;23.398;2023-06-19T05:15:48;24.67;;;23.60;;
20896;SDS011;10608;42.600;23.398;2023-06-19T05:18:15;17.53;;;16.73;;
20896;SDS011;10608;42.600;23.398;2023-06-19T05:20:40;15.60;;;14.93;;
20896;SDS011;10608;42.600;23.398;2023-06-19T05:23:05;21.97;;;21.00;;
20896;SDS011;10608;42.600;23.398;2023-06-19T05:25:31;22.97;;;21.73;;
20896;SDS011;10608;42.600;23.398;2023-06-19T05:27:56;21.27;;;20.17;;
20896;SDS011;10608;42.600;23.398;2023-06-19T05:30:21;14.33;;;13.73;;
20896;SDS011;10608;42.600;23.398;2023-06-19T05:32:47;12.80;;;12.10;;
20896;SDS011;10608;42.600;23.398;2023-06-19T05:35:13;10.33;;;9.83;;
20896;SDS011;10608;42.600;23.398;2023-06-19T05:37:38;10.53;;;9.90;;
20896;SDS011;10608;42.600;23.398;2023-06-19T05:40:05;12.90;;;11.90;;
20896;SDS011;10608;42.600;23.398;2023-06-19T05:42:31;10.30;;;9.80;;
20896;SDS011;10608;42.600;23.398;2023-06-19T05:44:56;10.70;;;10.20;;
20896;SDS011;10608;42.600;23.398;2023-06-19T05:47:22;11.07;;;10.57;;
20896;SDS011;10608;42.600;23.398;2023-06-19T05:49:50;8.97;;;8.47;;
20896;SDS011;10608;42.600;23.398;2023-06-19T05:52:16;12.33;;;11.73;;
20896;SDS011;10608;42.600;23.398;2023-06-19T05:54:42;9.70;;;9.20;;
20896;SDS011;10608;42.600;23.398;2023-06-19T05:57:07;10.40;;;9.90;;
20896;SDS011;10608;42.600;23.398;2023-06-19T05:59:33;12.33;;;11.73;;
20896;SDS011;10608;42.600;23.398;2023-06-19T06:01:58;11.87;;;11.27;;
20896;SDS011;10608;42.600;23.398;2023-06-19T06:04:24;12.03;;;11.43;;
20896;SDS011;10608;42.600;23.398;2023-06-19T06:06:49;13.47;;;12.77;;
20896;SDS011;10608;42.600;23.398;2023-06-19T06:09:14;11.07;;;10.57;;
20896;SDS011;10608;42.600;23.398;2023-06-19T06:11:41;11.10;;;10.57;;
20896;SDS011;10608;42.600;23.398;2023-06-19T06:14:07;12.47;;;11.53;;
20896;SDS011;10608;42.600;23.398;2023-06-19T06:16:32;12.33;;;11.73;;
20896;SDS011;10608;42.600;23.398;2023-06-19T06:18:58;11.00;;;10.43;;
20896;SDS011;10608;42.600;23.398;2023-06-19T06:21:24;10.03;;;9.23;;
20896;SDS011;10608;42.600;23.398;2023-06-19T06:23:49;11.97;;;11.43;;
20896;SDS011;10608;42.600;23.398;2023-06-19T06:26:14;11.60;;;10.90;;
20896;SDS011;10608;42.600;23.398;2023-06-19T06:28:40;8.50;;;8.10;;
20896;SDS011;10608;42.600;23.398;2023-06-19T06:31:06;7.63;;;7.23;;
20896;SDS011;10608;42.600;23.398;2023-06-19T06:33:31;8.80;;;8.37;;
20896;SDS011;10608;42.600;23.398;2023-06-19T06:35:57;9.97;;;9.30;;
20896;SDS011;10608;42.600;23.398;2023-06-19T06:38:24;9.33;;;8.93;;
20896;SDS011;10608;42.600;23.398;2023-06-19T06:40:49;10.87;;;10.37;;
20896;SDS011;10608;42.600;23.398;2023-06-19T06:43:15;15.47;;;14.77;;
20896;SDS011;10608;42.600;23.398;2023-06-19T06:45:41;16.60;;;15.53;;
20896;SDS011;10608;42.600;23.398;2023-06-19T06:48:07;14.77;;;13.97;;
20896;SDS011;10608;42.600;23.398;2023-06-19T06:50:33;16.60;;;15.73;;
20896;SDS011;10608;42.600;23.398;2023-06-19T06:52:58;17.53;;;16.67;;
20896;SDS011;10608;42.600;23.398;2023-06-19T06:55:24;11.37;;;10.73;;
20896;SDS011;10608;42.600;23.398;2023-06-19T06:57:49;11.90;;;11.40;;
20896;SDS011;10608;42.600;23.398;2023-06-19T07:00:15;11.63;;;11.03;;
20896;SDS011;10608;42.600;23.398;2023-06-19T07:02:40;13.80;;;13.13;;
20896;SDS011;10608;42.600;23.398;2023-06-19T07:05:06;12.47;;;11.87;;
20896;SDS011;10608;42.600;23.398;2023-06-19T07:07:32;11.47;;;10.97;;
20896;SDS011;10608;42.600;23.398;2023-06-19T07:09:57;9.93;;;9.33;;
20896;SDS011;10608;42.600;23.398;2023-06-19T07:12:23;8.90;;;8.20;;
20896;SDS011;10608;42.600;23.398;2023-06-19T07:14:48;9.73;;;9.23;;
20896;SDS011;10608;42.600;23.398;2023-06-19T07:17:14;8.87;;;8.47;;
20896;SDS011;10608;42.600;23.398;2023-06-19T07:19:39;9.77;;;9.30;;
20896;SDS011;10608;42.600;23.398;2023-06-19T07:22:05;9.57;;;8.97;;
20896;SDS011;10608;42.600;23.398;2023-06-19T07:24:31;9.30;;;8.40;;
20896;SDS011;10608;42.600;23.398;2023-06-19T07:26:56;9.47;;;9.07;;
20896;SDS011;10608;42.600;23.398;2023-06-19T07:29:22;10.13;;;9.63;;
20896;SDS011;10608;42.600;23.398;2023-06-19T07:31:47;10.20;;;9.70;;
20896;SDS011;10608;42.600;23.398;2023-06-19T07:34:13;9.67;;;8.97;;
20896;SDS011;10608;42.600;23.398;2023-06-19T07:36:38;8.97;;;8.57;;
20896;SDS011;10608;42.600;23.398;2023-06-19T07:39:04;8.67;;;8.27;;
20896;SDS011;10608;42.600;23.398;2023-06-19T07:41:30;9.03;;;8.43;;
20896;SDS011;10608;42.600;23.398;2023-06-19T07:43:55;7.93;;;7.53;;
20896;SDS011;10608;42.600;23.398;2023-06-19T07:46:20;9.00;;;8.60;;
20896;SDS011;10608;42.600;23.398;2023-06-19T07:48:46;9.07;;;8.57;;
20896;SDS011;10608;42.600;23.398;2023-06-19T07:51:11;9.83;;;9.00;;
20896;SDS011;10608;42.600;23.398;2023-06-19T07:53:37;10.30;;;9.70;;
20896;SDS011;10608;42.600;23.398;2023-06-19T07:56:04;8.07;;;7.67;;
20896;SDS011;10608;42.600;23.398;2023-06-19T07:58:29;9.07;;;8.67;;
20896;SDS011;10608;42.600;23.398;2023-06-19T08:00:55;8.77;;;8.27;;
20896;SDS011;10608;42.600;23.398;2023-06-19T08:03:20;9.80;;;9.30;;
20896;SDS011;10608;42.600;23.398;2023-06-19T08:05:47;8.70;;;8.30;;
20896;SDS011;10608;42.600;23.398;2023-06-19T08:08:12;9.80;;;9.33;;
20896;SDS011;10608;42.600;23.398;2023-06-19T08:10:38;9.30;;;8.77;;
20896;SDS011;10608;42.600;23.398;2023-06-19T08:13:05;9.23;;;8.63;;
20896;SDS011;10608;42.600;23.398;2023-06-19T08:15:31;8.70;;;8.30;;
20896;SDS011;10608;42.600;23.398;2023-06-19T08:17:56;9.57;;;9.07;;
20896;SDS011;10608;42.600;23.398;2023-06-19T08:20:22;10.30;;;9.73;;
20896;SDS011;10608;42.600;23.398;2023-06-19T08:22:47;10.32;;;9.82;;
20896;SDS011;10608;42.600;23.398;2023-06-19T08:25:12;9.40;;;8.90;;
20896;SDS011;10608;42.600;23.398;2023-06-19T08:27:38;9.20;;;8.70;;
20896;SDS011;10608;42.600;23.398;2023-06-19T08:30:03;9.13;;;8.73;;
20896;SDS011;10608;42.600;23.398;2023-06-19T08:32:29;9.57;;;9.18;;
20896;SDS011;10608;42.600;23.398;2023-06-19T08:34:55;8.93;;;8.33;;
20896;SDS011;10608;42.600;23.398;2023-06-19T08:37:20;10.37;;;9.77;;
20896;SDS011;10608;42.600;23.398;2023-06-19T08:39:46;10.40;;;9.90;;
20896;SDS011;10608;42.600;23.398;2023-06-19T08:42:11;9.40;;;9.00;;
20896;SDS011;10608;42.600;23.398;2023-06-19T08:44:37;8.43;;;8.03;;
20896;SDS011;10608;42.600;23.398;2023-06-19T08:47:03;8.17;;;7.87;;
20896;SDS011;10608;42.600;23.398;2023-06-19T08:49:35;8.77;;;8.37;;
20896;SDS011;10608;42.600;23.398;2023-06-19T08:52:01;9.77;;;9.07;;
20896;SDS011;10608;42.600;23.398;2023-06-19T08:54:27;9.37;;;8.87;;
20896;SDS011;10608;42.600;23.398;2023-06-19T08:56:53;10.07;;;9.57;;
20896;SDS011;10608;42.600;23.398;2023-06-19T08:59:19;10.83;;;10.23;;
20896;SDS011;10608;42.600;23.398;2023-06-19T09:01:51;10.03;;;9.63;;
20896;SDS011;10608;42.600;23.398;2023-06-19T09:04:22;12.40;;;11.80;;
20896;SDS011;10608;42.600;23.398;2023-06-19T09:06:53;10.70;;;10.20;;
20896;SDS011;10608;42.600;23.398;2023-06-19T09:09:19;8.90;;;8.50;;
20896;SDS011;10608;42.600;23.398;2023-06-19T09:12:05;10.53;;;10.07;;
20896;SDS011;10608;42.600;23.398;2023-06-19T09:14:37;9.40;;;9.00;;
20896;SDS011;10608;42.600;23.398;2023-06-19T09:17:03;10.00;;;9.50;;
20896;SDS011;10608;42.600;23.398;2023-06-19T09:19:30;9.47;;;8.97;;
20896;SDS011;10608;42.600;23.398;2023-06-19T09:22:06;9.50;;;9.10;;
20896;SDS011;10608;42.600;23.398;2023-06-19T09:24:39;7.70;;;7.30;;
20896;SDS011;10608;42.600;23.398;2023-06-19T09:27:09;8.50;;;8.10;;
20896;SDS011;10608;42.600;23.398;2023-06-19T09:29:39;9.40;;;9.00;;
20896;SDS011;10608;42.600;23.398;2023-06-19T09:34:43;9.57;;;8.47;;
20896;SDS011;10608;42.600;23.398;2023-06-19T09:37:08;8.60;;;8.20;;
20896;SDS011;10608;42.600;23.398;2023-06-19T09:39:38;10.13;;;9.53;;
20896;SDS011;10608;42.600;23.398;2023-06-19T09:42:06;16.27;;;15.57;;
20896;SDS011;10608;42.600;23.398;2023-06-19T09:44:36;15.63;;;14.88;;
20896;SDS011;10608;42.600;23.398;2023-06-19T09:47:04;10.80;;;10.30;;
20896;SDS011;10608;42.600;23.398;2023-06-19T09:49:42;10.93;;;10.23;;
20896;SDS011;10608;42.600;23.398;2023-06-19T09:52:11;10.00;;;9.50;;
20896;SDS011;10608;42.600;23.398;2023-06-19T09:54:36;11.40;;;10.90;;
20896;SDS011;10608;42.600;23.398;2023-06-19T09:57:03;10.30;;;9.80;;
20896;SDS011;10608;42.600;23.398;2023-06-19T09:59:29;12.13;;;11.63;;
20896;SDS011;10608;42.600;23.398;2023-06-19T10:01:55;13.30;;;12.50;;
20896;SDS011;10608;42.600;23.398;2023-06-19T10:04:21;7.83;;;7.43;;
20896;SDS011;10608;42.600;23.398;2023-06-19T10:06:47;10.13;;;9.63;;
20896;SDS011;10608;42.600;23.398;2023-06-19T10:09:14;8.27;;;7.67;;
20896;SDS011;10608;42.600;23.398;2023-06-19T10:14:21;24.13;;;23.07;;
20896;SDS011;10608;42.600;23.398;2023-06-19T10:16:47;17.57;;;16.77;;
20896;SDS011;10608;42.600;23.398;2023-06-19T10:19:16;12.73;;;12.13;;
20896;SDS011;10608;42.600;23.398;2023-06-19T10:21:44;11.60;;;11.10;;
20896;SDS011;10608;42.600;23.398;2023-06-19T10:24:13;10.90;;;10.40;;
20896;SDS011;10608;42.600;23.398;2023-06-19T10:26:40;11.57;;;10.97;;
20896;SDS011;10608;42.600;23.398;2023-06-19T10:29:15;8.87;;;8.47;;
20896;SDS011;10608;42.600;23.398;2023-06-19T10:31:42;9.83;;;9.27;;
20896;SDS011;10608;42.600;23.398;2023-06-19T10:34:09;10.73;;;10.23;;
20896;SDS011;10608;42.600;23.398;2023-06-19T10:36:35;11.17;;;10.67;;
20896;SDS011;10608;42.600;23.398;2023-06-19T10:39:00;12.80;;;12.27;;
20896;SDS011;10608;42.600;23.398;2023-06-19T10:41:25;13.97;;;13.37;;
20896;SDS011;10608;42.600;23.398;2023-06-19T10:46:24;11.10;;;10.60;;
20896;SDS011;10608;42.600;23.398;2023-06-19T10:48:54;14.00;;;13.40;;
20896;SDS011;10608;42.600;23.398;2023-06-19T10:51:24;13.10;;;12.50;;
20896;SDS011;10608;42.600;23.398;2023-06-19T10:53:50;13.23;;;12.63;;
20896;SDS011;10608;42.600;23.398;2023-06-19T10:56:15;12.47;;;11.87;;
20896;SDS011;10608;42.600;23.398;2023-06-19T10:58:45;12.27;;;11.67;;
20896;SDS011;10608;42.600;23.398;2023-06-19T11:01:11;11.53;;;10.93;;
20896;SDS011;10608;42.600;23.398;2023-06-19T11:03:36;10.83;;;10.33;;
20896;SDS011;10608;42.600;23.398;2023-06-19T11:06:02;11.70;;;11.20;;
20896;SDS011;10608;42.600;23.398;2023-06-19T11:08:28;11.13;;;10.23;;
20896;SDS011;10608;42.600;23.398;2023-06-19T11:10:54;15.40;;;14.70;;
20896;SDS011;10608;42.600;23.398;2023-06-19T11:13:20;13.60;;;13.00;;
20896;SDS011;10608;42.600;23.398;2023-06-19T11:15:47;11.70;;;11.17;;
20896;SDS011;10608;42.600;23.398;2023-06-19T11:18:17;11.70;;;11.20;;
20896;SDS011;10608;42.600;23.398;2023-06-19T11:20:47;12.80;;;12.10;;
20896;SDS011;10608;42.600;23.398;2023-06-19T11:23:16;12.67;;;12.07;;
20896;SDS011;10608;42.600;23.398;2023-06-19T11:25:42;12.27;;;11.73;;
20896;SDS011;10608;42.600;23.398;2023-06-19T11:28:11;10.50;;;10.00;;
20896;SDS011;10608;42.600;23.398;2023-06-19T11:30:38;10.17;;;9.67;;
20896;SDS011;10608;42.600;23.398;2023-06-19T11:33:14;11.20;;;10.60;;
20896;SDS011;10608;42.600;23.398;2023-06-19T11:35:47;10.03;;;9.63;;
20896;SDS011;10608;42.600;23.398;2023-06-19T11:38:17;11.40;;;10.87;;
20896;SDS011;10608;42.600;23.398;2023-06-19T11:40:46;9.83;;;9.33;;
20896;SDS011;10608;42.600;23.398;2023-06-19T11:43:12;12.87;;;12.27;;
20896;SDS011;10608;42.600;23.398;2023-06-19T11:45:49;13.77;;;13.10;;
20896;SDS011;10608;42.600;23.398;2023-06-19T11:48:21;11.57;;;11.00;;
20896;SDS011;10608;42.600;23.398;2023-06-19T11:50:48;14.10;;;13.30;;
20896;SDS011;10608;42.600;23.398;2023-06-19T11:53:13;12.57;;;11.67;;
20896;SDS011;10608;42.600;23.398;2023-06-19T11:55:38;11.70;;;11.10;;
20896;SDS011;10608;42.600;23.398;2023-06-19T11:58:04;14.27;;;13.57;;
20896;SDS011;10608;42.600;23.398;2023-06-19T12:00:31;12.77;;;12.17;;
20896;SDS011;10608;42.600;23.398;2023-06-19T12:02:56;18.70;;;17.83;;
20896;SDS011;10608;42.600;23.398;2023-06-19T12:05:23;15.37;;;14.53;;
20896;SDS011;10608;42.600;23.398;2023-06-19T12:07:49;13.07;;;12.37;;
20896;SDS011;10608;42.600;23.398;2023-06-19T12:10:14;12.03;;;11.43;;
20896;SDS011;10608;42.600;23.398;2023-06-19T12:12:40;12.00;;;11.40;;
20896;SDS011;10608;42.600;23.398;2023-06-19T12:15:06;12.77;;;11.90;;
20896;SDS011;10608;42.600;23.398;2023-06-19T12:17:32;10.50;;;9.97;;
20896;SDS011;10608;42.600;23.398;2023-06-19T12:19:58;11.20;;;10.70;;
20896;SDS011;10608;42.600;23.398;2023-06-19T12:22:23;12.57;;;11.97;;
20896;SDS011;10608;42.600;23.398;2023-06-19T12:24:49;17.20;;;16.40;;
20896;SDS011;10608;42.600;23.398;2023-06-19T12:27:14;16.73;;;15.93;;
20896;SDS011;10608;42.600;23.398;2023-06-19T12:29:39;12.90;;;12.27;;
20896;SDS011;10608;42.600;23.398;2023-06-19T12:32:05;17.53;;;16.73;;
20896;SDS011;10608;42.600;23.398;2023-06-19T12:34:31;19.40;;;18.43;;
20896;SDS011;10608;42.600;23.398;2023-06-19T12:36:56;28.27;;;27.03;;
20896;SDS011;10608;42.600;23.398;2023-06-19T12:39:22;19.10;;;18.20;;
20896;SDS011;10608;42.600;23.398;2023-06-19T12:41:48;20.03;;;19.13;;
20896;SDS011;10608;42.600;23.398;2023-06-19T12:44:13;15.30;;;14.53;;
20896;SDS011;10608;42.600;23.398;2023-06-19T12:46:38;13.07;;;12.47;;
20896;SDS011;10608;42.600;23.398;2023-06-19T12:49:04;14.50;;;13.70;;
20896;SDS011;10608;42.600;23.398;2023-06-19T12:51:30;13.07;;;12.47;;
20896;SDS011;10608;42.600;23.398;2023-06-19T12:53:55;14.70;;;14.00;;
20896;SDS011;10608;42.600;23.398;2023-06-19T12:56:21;14.03;;;13.33;;
20896;SDS011;10608;42.600;23.398;2023-06-19T12:58:46;13.33;;;12.73;;
20896;SDS011;10608;42.600;23.398;2023-06-19T13:01:12;13.33;;;12.73;;
20896;SDS011;10608;42.600;23.398;2023-06-19T13:03:37;13.67;;;12.90;;
20896;SDS011;10608;42.600;23.398;2023-06-19T13:06:02;13.03;;;12.43;;
20896;SDS011;10608;42.600;23.398;2023-06-19T13:08:28;18.03;;;17.23;;
20896;SDS011;10608;42.600;23.398;2023-06-19T13:10:53;16.00;;;15.30;;
20896;SDS011;10608;42.600;23.398;2023-06-19T13:13:18;20.43;;;19.53;;
20896;SDS011;10608;42.600;23.398;2023-06-19T13:15:44;22.23;;;21.17;;
20896;SDS011;10608;42.600;23.398;2023-06-19T13:18:09;15.03;;;14.23;;
20896;SDS011;10608;42.600;23.398;2023-06-19T13:20:35;13.83;;;13.13;;
20896;SDS011;10608;42.600;23.398;2023-06-19T13:23:01;17.93;;;17.13;;
20896;SDS011;10608;42.600;23.398;2023-06-19T13:25:26;17.50;;;16.40;;
20896;SDS011;10608;42.600;23.398;2023-06-19T13:27:52;12.20;;;11.50;;
20896;SDS011;10608;42.600;23.398;2023-06-19T13:30:17;14.17;;;13.47;;
20896;SDS011;10608;42.600;23.398;2023-06-19T13:32:43;15.87;;;15.07;;
20896;SDS011;10608;42.600;23.398;2023-06-19T13:35:08;15.77;;;15.03;;
20896;SDS011;10608;42.600;23.398;2023-06-19T13:37:34;23.60;;;22.50;;
20896;SDS011;10608;42.600;23.398;2023-06-19T13:40:04;14.30;;;13.60;;
20896;SDS011;10608;42.600;23.398;2023-06-19T13:42:30;11.70;;;11.10;;
20896;SDS011;10608;42.600;23.398;2023-06-19T13:44:56;11.80;;;11.20;;
20896;SDS011;10608;42.600;23.398;2023-06-19T13:47:22;13.07;;;12.47;;
20896;SDS011;10608;42.600;23.398;2023-06-19T13:49:50;15.63;;;14.83;;
20896;SDS011;10608;42.600;23.398;2023-06-19T13:52:16;16.60;;;15.80;;
20896;SDS011;10608;42.600;23.398;2023-06-19T13:54:41;21.10;;;20.17;;
20896;SDS011;10608;42.600;23.398;2023-06-19T13:57:07;19.90;;;18.97;;
20896;SDS011;10608;42.600;23.398;2023-06-19T13:59:32;19.47;;;18.57;;
20896;SDS011;10608;42.600;23.398;2023-06-19T14:01:58;15.73;;;15.03;;
20896;SDS011;10608;42.600;23.398;2023-06-19T14:04:23;16.47;;;15.67;;
20896;SDS011;10608;42.600;23.398;2023-06-19T14:06:48;15.47;;;14.77;;
20896;SDS011;10608;42.600;23.398;2023-06-19T14:09:14;17.93;;;16.93;;
20896;SDS011;10608;42.600;23.398;2023-06-19T14:11:39;19.30;;;18.40;;
20896;SDS011;10608;42.600;23.398;2023-06-19T14:14:05;16.40;;;15.60;;
20896;SDS011;10608;42.600;23.398;2023-06-19T14:16:30;15.97;;;15.17;;